Latest Coastal Weather Observations for Norah Head

IDN60701

Issued at 8:32 pm EST Saturday 25 June 2016 (issued every 10 minutes, with the page automatically refreshed every 10 minutes)

About coastal observations | Map of coastal stations | Coastal observations for NSW | Marine services | Other Formats
Station Details ID: 061366 Name: NORAH HEAD AWS Lat: -33.28 Lon: 151.58 Height: 18.8 m
Data from the previous 72 hours. | See also: Recent months at Norah Head
Date/Time
EST
Temp
°C
Wind Pressure Rain since
9am
mm
Weather Cloud Vis
km
Sea
Height
m
Swell
Dir  Spd
kts
Gust
kts
hPa Trend Height
m
Period
s
Dir
25/08:30pm 8.1 W 5 8 1020.1 - 0.0 - - - - - - -
25/08:00pm 8.2 W 6 8 1019.8 - 0.0 - - - - - - -
25/07:30pm 8.6 W 6 8 1019.9 - 0.0 - - - - - - -
25/07:00pm 9.4 W 6 8 1019.7 - 0.0 - - - - - - -
25/06:30pm 10.0 W 5 7 1019.6 - 0.0 - - - - - - -
25/06:00pm 10.6 W 5 7 1019.4 - 0.0 - - - - - - -
25/05:30pm 10.9 W 6 7 1019.0 - 0.0 - - - - - - -
25/05:00pm 10.9 WSW 6 7 1018.9 - 0.0 - - - - - - -
25/04:30pm 11.4 WSW 5 6 1018.8 - 0.0 - - - - - - -
25/04:00pm 11.9 WSW 6 9 1018.7 - 0.0 - - - - - - -
25/03:30pm 12.3 WSW 5 9 1018.4 - 0.0 - - - - - - -
25/03:00pm 12.6 SW 7 12 1018.3 - 0.0 - - - - - - -
25/02:30pm 12.9 SW 7 12 1018.1 - 0.0 - - - - - - -
25/02:00pm 13.0 SW 9 15 1017.9 - 0.0 - - - - - - -
25/01:30pm 13.2 SW 6 11 1017.9 - 0.0 - - - - - - -
25/01:00pm 13.0 SW 6 13 1018.1 - 0.0 - - - - - - -
25/12:30pm 12.2 SW 8 14 1018.2 - 0.0 - - - - - - -
25/12:00pm 11.9 SW 10 15 1018.2 - 0.0 - - - - - - -
25/11:30am 11.9 SW 9 15 1018.4 - 0.0 - - - - - - -
25/11:00am 11.6 WSW 8 16 1018.6 - 0.0 - - - - - - -
25/10:30am 11.0 WSW 10 17 1018.6 - 0.0 - - - - - - -
25/10:00am 10.9 WSW 8 15 1018.6 - 0.0 - - - - - - -
25/09:30am 10.1 WSW 8 15 1018.5 - 0.0 - - - - - - -
25/09:00am 9.5 W 5 11 1018.0 - 0.0 - - - - - - -
25/08:30am 9.0 W 5 11 1017.8 - 0.0 - - - - - - -
25/08:00am 8.0 WNW 4 10 1017.5 - 0.0 - - - - - - -
25/07:30am 6.9 WNW 4 7 1017.4 - 0.0 - - - - - - -
25/07:00am 6.5 WNW 4 7 1016.9 - 0.0 - - - - - - -
25/06:30am 7.2 W 5 10 1016.5 - 0.0 - - - - - - -
25/06:00am 7.3 WSW 4 8 1016.2 - 0.0 - - - - - - -
25/05:30am 7.0 W 4 7 1015.5 - 0.0 - - - - - - -
25/05:00am 7.5 W 6 10 1015.0 - 0.0 - - - - - - -
25/04:30am 7.5 WNW 5 11 1014.4 - 0.0 - - - - - - -
25/04:00am 7.7 WNW 5 8 1014.1 - 0.0 - - - - - - -
25/03:30am 8.0 W 5 9 1014.0 - 0.0 - - - - - - -
25/03:00am 8.3 W 5 11 1013.8 - 0.0 - - - - - - -
25/02:30am 8.3 W 6 10 1013.2 - 0.0 - - - - - - -
25/02:00am 8.5 W 6 11 1012.9 - 0.0 - - - - - - -
25/01:30am 8.6 W 6 11 1012.7 - 0.0 - - - - - - -
25/01:00am 8.7 WNW 7 14 1012.0 - 0.0 - - - - - - -
25/12:30am 8.8 WNW 8 13 1011.8 - 0.0 - - - - - - -
25/12:00am 8.9 WNW 8 15 1011.5 - 0.0 - - - - - - -
 
Date/Time
EST
Temp
°C
Wind Pressure Rain since
9am
mm
Weather Cloud Vis
km
Sea
Height
m
Swell
Dir  Spd
kts
Gust
kts
hPa Trend Height
m
Period
s
Dir
24/11:30pm 9.0 WNW 7 16 1011.3 - 0.0 - - - - - - -
24/11:00pm 9.3 WNW 8 14 1011.2 - 0.0 - - - - - - -
24/10:30pm 9.3 W 9 17 1011.1 - 0.0 - - - - - - -
24/10:00pm 9.3 W 8 18 1010.7 - 0.0 - - - - - - -
24/09:30pm 9.3 W 8 16 1010.3 - 0.0 - - - - - - -
24/09:00pm 9.5 WNW 9 18 1009.4 - 0.0 - - - - - - -
24/08:30pm 9.5 WNW 8 17 1009.3 - 0.0 - - - - - - -
24/08:00pm 9.5 WNW 7 13 1009.4 - 0.0 - - - - - - -
24/07:30pm 9.8 W 8 20 1009.0 - 0.0 - - - - - - -
24/07:00pm 9.9 WNW 8 16 1008.1 - 0.0 - - - - - - -
24/06:30pm 9.9 WNW 8 15 1008.0 - 0.0 - - - - - - -
24/06:00pm 10.1 WNW 7 15 1007.4 - 0.0 - - - - - - -
24/05:30pm 10.7 WNW 12 26 1006.5 - 0.0 - - - - - - -
24/05:00pm 12.0 WNW 9 19 1006.0 - 0.0 - - - - - - -
24/04:30pm 13.6 WNW 11 26 1005.2 - 0.0 - - - - - - -
24/04:00pm 14.0 WNW 6 13 1004.5 - 0.0 - - - - - - -
24/03:30pm 14.6 W 8 15 1004.3 - 0.0 - - - - - - -
24/03:00pm 15.1 W 11 19 1003.8 - 0.0 - - - - - - -
24/02:30pm 16.3 W 7 19 1003.7 - 0.0 - - - - - - -
24/02:00pm 16.4 W 7 16 1003.3 - 0.0 - - - - - - -
24/01:30pm 16.9 WNW 8 22 1003.3 - 0.0 - - - - - - -
24/01:00pm 16.8 NW 9 18 1003.1 - 0.0 - - - - - - -
24/12:30pm 17.1 WNW 6 17 1003.5 - 0.0 - - - - - - -
24/12:00pm 16.7 NW 8 16 1003.9 - 0.0 - - - - - - -
24/11:30am 15.2 WNW 7 13 1004.2 - 0.0 - - - - - - -
24/11:00am 15.9 WNW 8 26 1004.8 - 0.0 - - - - - - -
24/10:30am 17.1 WNW 6 12 1004.7 - 0.0 - - - - - - -
24/10:00am 16.9 WNW 6 15 1004.6 - 0.0 - - - - - - -
24/09:30am 16.2 NW 6 14 1004.5 - 0.0 - - - - - - -
24/09:00am 15.8 NW 6 11 1004.3 - 0.0 - - - - - - -
24/08:30am 15.1 NW 4 9 1004.1 - 0.0 - - - - - - -
24/08:00am 14.0 NW 5 9 1003.8 - 0.0 - - - - - - -
24/07:30am 12.9 NW 5 8 1003.6 - 0.0 - - - - - - -
24/07:00am 12.5 NW 6 8 1003.6 - 0.0 - - - - - - -
24/06:30am 12.4 NW 5 9 1003.5 - 0.0 - - - - - - -
24/06:00am 12.5 NW 5 8 1003.4 - 0.0 - - - - - - -
24/05:30am 12.8 NW 4 7 1003.4 - 0.0 - - - - - - -
24/05:00am 13.3 NW 4 7 1003.4 - 0.0 - - - - - - -
24/04:30am 13.8 NNW 8 10 1003.3 - 0.0 - - - - - - -
24/04:00am 13.8 NNW 8 11 1003.3 - 0.0 - - - - - - -
24/03:30am 14.0 N 8 10 1003.8 - 0.0 - - - - - - -
24/03:00am 14.2 NNW 9 12 1004.2 - 0.0 - - - - - - -
24/02:30am 14.6 N 12 15 1004.1 - 0.0 - - - - - - -
24/02:00am 14.8 N 11 13 1004.3 - 0.0 - - - - - - -
24/01:30am 14.4 N 10 13 1004.8 - 0.0 - - - - - - -
24/01:00am 13.8 NNW 9 13 1005.0 - 0.0 - - - - - - -
24/12:30am 14.1 NNW 11 13 1005.2 - 0.0 - - - - - - -
24/12:00am 14.4 N 14 18 1005.2 - 0.0 - - - - - - -
 
Date/Time
EST
Temp
°C
Wind Pressure Rain since
9am
mm
Weather Cloud Vis
km
Sea
Height
m
Swell
Dir  Spd
kts
Gust
kts
hPa Trend Height
m
Period
s
Dir
23/11:30pm 14.6 N 15 19 1005.6 - 0.0 - - - - - - -
23/11:00pm 14.4 NNW 13 16 1006.0 - 0.0 - - - - - - -
23/10:30pm 14.7 N 15 19 1006.0 - 0.0 - - - - - - -
23/10:00pm 15.0 N 17 21 1006.2 - 0.0 - - - - - - -
23/09:30pm 14.8 N 15 18 1006.5 - 0.0 - - - - - - -
23/09:00pm 14.9 N 13 16 1006.9 - 0.0 - - - - - - -
23/08:30pm 15.0 N 10 13 1007.2 - 0.0 - - - - - - -
23/08:00pm 15.2 N 10 13 1007.4 - 0.0 - - - - - - -
23/07:30pm 15.3 N 9 10 1007.7 - 0.0 - - - - - - -
23/07:00pm 15.3 N 12 14 1007.6 - 0.0 - - - - - - -
23/06:30pm 15.3 N 14 16 1007.6 - 0.0 - - - - - - -
23/06:00pm 15.3 N 10 12 1007.7 - 0.0 - - - - - - -
23/05:30pm 15.4 NNW 11 13 1007.7 - 0.0 - - - - - - -
23/05:00pm 15.3 NNW 12 15 1007.6 - 0.0 - - - - - - -
23/04:30pm 15.3 NNW 10 13 1007.8 - 0.0 - - - - - - -
23/04:00pm 15.6 NW 8 15 1007.9 - 0.0 - - - - - - -
23/03:30pm 15.9 NNW 7 11 1008.0 - 0.0 - - - - - - -
23/03:00pm 16.3 NW 4 9 1008.4 - 0.0 - - - - - - -
23/02:30pm 17.3 NW 6 10 1008.5 - 0.0 - - - - - - -
23/02:00pm 16.4 NW 9 17 1008.9 - 0.0 - - - - - - -
23/01:30pm 16.4 WNW 7 14 1009.0 - 0.0 - - - - - - -
23/01:00pm 16.4 WNW 8 16 1009.7 - 0.0 - - - - - - -
23/12:30pm 16.1 WNW 6 13 1010.4 - 0.0 - - - - - - -
23/12:00pm 15.5 NW 8 16 1011.2 - 0.0 - - - - - - -
23/11:30am 16.2 WNW 9 17 1011.9 - 0.0 - - - - - - -
23/11:00am 16.6 NW 9 13 1012.3 - 0.0 - - - - - - -
23/10:30am 16.9 NNW 8 12 1012.7 - 0.0 - - - - - - -
23/10:00am 16.2 NNW 8 13 1013.0 - 0.0 - - - - - - -
23/09:30am 15.2 NW 7 12 1013.1 - 0.0 - - - - - - -
23/09:00am 14.6 NNW 6 11 1012.8 - 0.0 - - - - - - -
23/08:30am 12.7 NW 6 9 1013.0 - 0.0 - - - - - - -
23/08:00am 10.9 NW 4 7 1013.1 - 0.0 - - - - - - -
23/07:30am 9.6 NW 4 7 1013.1 - 0.0 - - - - - - -
23/07:00am 9.6 WNW 4 7 1012.9 - 0.0 - - - - - - -
23/06:30am 9.6 NW 6 9 1012.3 - 0.0 - - - - - - -
23/06:00am 10.2 NW 4 6 1011.8 - 0.0 - - - - - - -
23/05:30am 10.5 NW 6 8 1011.9 - 0.0 - - - - - - -
23/05:00am 11.0 NNW 7 11 1011.9 - 0.0 - - - - - - -
23/04:30am 10.6 NW 6 9 1012.1 - 0.0 - - - - - - -
23/04:00am 10.4 NW 4 6 1012.2 - 0.0 - - - - - - -
23/03:30am 10.4 NW 4 7 1012.3 - 0.0 - - - - - - -
23/03:00am 11.3 NW 5 8 1012.7 - 0.0 - - - - - - -
23/02:30am 11.2 NW 4 5 1012.7 - 0.0 - - - - - - -
23/02:00am 11.1 WNW 4 6 1012.4 - 0.0 - - - - - - -
23/01:30am 11.2 N 5 6 1012.5 - 0.0 - - - - - - -
23/01:00am 11.2 NW 3 5 1012.6 - 0.0 - - - - - - -
23/12:30am 11.8 WNW 3 7 1012.2 - 0.0 - - - - - - -
23/12:00am 12.1 WNW 3 5 1012.2 - 0.0 - - - - - - -
 
Date/Time
EST
Temp
°C
Wind Pressure Rain since
9am
mm
Weather Cloud Vis
km
Sea
Height
m
Swell
Dir  Spd
kts
Gust
kts
hPa Trend Height
m
Period
s
Dir
22/11:30pm 12.3 WSW 1 5 1012.4 - 0.0 - - - - - - -
22/11:00pm 12.8 W 5 8 1012.3 - 0.0 - - - - - - -
22/10:30pm 13.2 WNW 6 13 1011.9 - 0.0 - - - - - - -
22/10:00pm 13.2 WNW 5 9 1011.9 - 0.0 - - - - - - -
22/09:30pm 13.6 W 5 13 1011.8 - 0.0 - - - - - - -
22/09:00pm 13.3 W 4 10 1011.5 - 0.0 - - - - - - -

Other Formats:

Comma delimited format used in spreadsheet applications
http://www.bom.gov.au/fwo/IDN60701/IDN60701.95770.axf

JavaScript Object Notation format (JSON) in row-major order
http://www.bom.gov.au/fwo/IDN60701/IDN60701.95770.json